sensor_id;sensor_type;location;lat;lon;timestamp;temperature;humidity
21092;DHT22;10704;42.678;23.288;2024-01-11T00:01:49;-5.20;99.90
21092;DHT22;10704;42.678;23.288;2024-01-11T00:04:15;-5.10;99.90
21092;DHT22;10704;42.678;23.288;2024-01-11T00:06:44;-5.10;99.90
21092;DHT22;10704;42.678;23.288;2024-01-11T00:09:10;-5.10;99.90
21092;DHT22;10704;42.678;23.288;2024-01-11T00:11:36;-5.00;99.90
21092;DHT22;10704;42.678;23.288;2024-01-11T00:14:02;-5.00;99.90
21092;DHT22;10704;42.678;23.288;2024-01-11T00:16:28;-5.10;99.90
21092;DHT22;10704;42.678;23.288;2024-01-11T00:18:54;-5.00;99.90
21092;DHT22;10704;42.678;23.288;2024-01-11T00:21:20;-4.90;99.90
21092;DHT22;10704;42.678;23.288;2024-01-11T00:23:46;-4.90;99.90
21092;DHT22;10704;42.678;23.288;2024-01-11T00:26:13;-4.80;99.90
21092;DHT22;10704;42.678;23.288;2024-01-11T00:28:39;-4.70;99.90
21092;DHT22;10704;42.678;23.288;2024-01-11T00:31:04;-4.80;99.90
21092;DHT22;10704;42.678;23.288;2024-01-11T00:33:31;-4.90;99.90
21092;DHT22;10704;42.678;23.288;2024-01-11T00:35:57;-5.00;99.90
21092;DHT22;10704;42.678;23.288;2024-01-11T00:38:23;-5.10;99.90
21092;DHT22;10704;42.678;23.288;2024-01-11T00:40:49;-4.90;99.90
21092;DHT22;10704;42.678;23.288;2024-01-11T00:43:15;-4.90;99.90
21092;DHT22;10704;42.678;23.288;2024-01-11T00:45:41;-5.00;99.90
21092;DHT22;10704;42.678;23.288;2024-01-11T00:48:07;-5.00;99.90
21092;DHT22;10704;42.678;23.288;2024-01-11T00:50:33;-5.00;99.90
21092;DHT22;10704;42.678;23.288;2024-01-11T00:52:59;-5.00;99.90
21092;DHT22;10704;42.678;23.288;2024-01-11T00:55:27;-5.00;99.90
21092;DHT22;10704;42.678;23.288;2024-01-11T00:57:52;-5.00;99.90
21092;DHT22;10704;42.678;23.288;2024-01-11T01:00:18;-5.00;99.90
21092;DHT22;10704;42.678;23.288;2024-01-11T01:02:44;-5.00;99.90
21092;DHT22;10704;42.678;23.288;2024-01-11T01:05:10;-5.00;99.90
21092;DHT22;10704;42.678;23.288;2024-01-11T01:07:36;-5.00;99.90
21092;DHT22;10704;42.678;23.288;2024-01-11T01:10:02;-5.10;99.90
21092;DHT22;10704;42.678;23.288;2024-01-11T01:12:28;-5.00;99.90
21092;DHT22;10704;42.678;23.288;2024-01-11T01:14:54;-5.00;99.90
21092;DHT22;10704;42.678;23.288;2024-01-11T01:17:22;-5.00;99.90
21092;DHT22;10704;42.678;23.288;2024-01-11T01:19:48;-5.00;99.90
21092;DHT22;10704;42.678;23.288;2024-01-11T01:22:14;-5.00;99.90
21092;DHT22;10704;42.678;23.288;2024-01-11T01:24:40;-5.00;99.90
21092;DHT22;10704;42.678;23.288;2024-01-11T01:27:06;-4.90;99.90
21092;DHT22;10704;42.678;23.288;2024-01-11T01:29:32;-4.90;99.90
21092;DHT22;10704;42.678;23.288;2024-01-11T01:31:58;-5.00;99.90
21092;DHT22;10704;42.678;23.288;2024-01-11T01:34:24;-4.90;99.90
21092;DHT22;10704;42.678;23.288;2024-01-11T01:36:50;-5.00;99.90
21092;DHT22;10704;42.678;23.288;2024-01-11T01:39:15;-5.00;99.90
21092;DHT22;10704;42.678;23.288;2024-01-11T01:41:42;-5.00;99.90
21092;DHT22;10704;42.678;23.288;2024-01-11T01:44:08;-5.00;99.90
21092;DHT22;10704;42.678;23.288;2024-01-11T01:46:34;-5.00;99.90
21092;DHT22;10704;42.678;23.288;2024-01-11T01:49:01;-5.10;99.90
21092;DHT22;10704;42.678;23.288;2024-01-11T01:51:29;-5.20;99.90
21092;DHT22;10704;42.678;23.288;2024-01-11T01:53:56;-5.20;99.90
21092;DHT22;10704;42.678;23.288;2024-01-11T01:56:23;-5.10;99.90
21092;DHT22;10704;42.678;23.288;2024-01-11T01:58:51;-5.10;99.90
21092;DHT22;10704;42.678;23.288;2024-01-11T02:01:18;-5.00;99.90
21092;DHT22;10704;42.678;23.288;2024-01-11T02:03:46;-5.00;99.90
21092;DHT22;10704;42.678;23.288;2024-01-11T02:06:13;-5.00;99.90
21092;DHT22;10704;42.678;23.288;2024-01-11T02:08:42;-5.10;99.90
21092;DHT22;10704;42.678;23.288;2024-01-11T02:11:08;-5.30;99.90
21092;DHT22;10704;42.678;23.288;2024-01-11T02:13:35;-5.30;99.90
21092;DHT22;10704;42.678;23.288;2024-01-11T02:16:01;-5.20;99.90
21092;DHT22;10704;42.678;23.288;2024-01-11T02:18:27;-5.20;99.90
21092;DHT22;10704;42.678;23.288;2024-01-11T02:20:53;-5.20;99.90
21092;DHT22;10704;42.678;23.288;2024-01-11T02:23:21;-5.20;99.90
21092;DHT22;10704;42.678;23.288;2024-01-11T02:25:50;-5.20;99.90
21092;DHT22;10704;42.678;23.288;2024-01-11T02:28:17;-5.30;99.90
21092;DHT22;10704;42.678;23.288;2024-01-11T02:30:43;-5.30;99.90
21092;DHT22;10704;42.678;23.288;2024-01-11T02:33:09;-5.30;99.90
21092;DHT22;10704;42.678;23.288;2024-01-11T02:35:35;-5.40;99.90
21092;DHT22;10704;42.678;23.288;2024-01-11T02:38:04;-5.40;99.90
21092;DHT22;10704;42.678;23.288;2024-01-11T02:40:31;-5.40;99.90
21092;DHT22;10704;42.678;23.288;2024-01-11T02:42:57;-5.40;99.90
21092;DHT22;10704;42.678;23.288;2024-01-11T02:45:23;-5.30;99.90
21092;DHT22;10704;42.678;23.288;2024-01-11T02:47:49;-5.30;99.90
21092;DHT22;10704;42.678;23.288;2024-01-11T02:50:16;-5.40;99.90
21092;DHT22;10704;42.678;23.288;2024-01-11T02:52:41;-5.50;99.90
21092;DHT22;10704;42.678;23.288;2024-01-11T02:55:07;-5.60;99.90
21092;DHT22;10704;42.678;23.288;2024-01-11T02:57:34;-5.70;99.90
21092;DHT22;10704;42.678;23.288;2024-01-11T03:00:00;-5.60;99.90
21092;DHT22;10704;42.678;23.288;2024-01-11T03:02:26;-5.60;99.90
21092;DHT22;10704;42.678;23.288;2024-01-11T03:04:52;-5.70;99.90
21092;DHT22;10704;42.678;23.288;2024-01-11T03:07:18;-5.70;99.90
21092;DHT22;10704;42.678;23.288;2024-01-11T03:09:44;-5.80;99.90
21092;DHT22;10704;42.678;23.288;2024-01-11T03:12:10;-5.80;99.90
21092;DHT22;10704;42.678;23.288;2024-01-11T03:14:36;-5.80;99.90
21092;DHT22;10704;42.678;23.288;2024-01-11T03:17:02;-5.80;99.90
21092;DHT22;10704;42.678;23.288;2024-01-11T03:19:27;-5.80;99.90
21092;DHT22;10704;42.678;23.288;2024-01-11T03:21:53;-5.80;99.90
21092;DHT22;10704;42.678;23.288;2024-01-11T03:24:19;-5.80;99.90
21092;DHT22;10704;42.678;23.288;2024-01-11T03:26:50;-5.80;99.90
21092;DHT22;10704;42.678;23.288;2024-01-11T03:29:17;-5.70;99.90
21092;DHT22;10704;42.678;23.288;2024-01-11T03:31:43;-5.70;99.90
21092;DHT22;10704;42.678;23.288;2024-01-11T03:34:10;-5.70;99.90
21092;DHT22;10704;42.678;23.288;2024-01-11T03:36:36;-5.70;99.90
21092;DHT22;10704;42.678;23.288;2024-01-11T03:39:02;-5.80;99.90
21092;DHT22;10704;42.678;23.288;2024-01-11T03:41:28;-5.80;99.90
21092;DHT22;10704;42.678;23.288;2024-01-11T03:43:54;-5.90;99.90
21092;DHT22;10704;42.678;23.288;2024-01-11T03:46:20;-6.00;99.90
21092;DHT22;10704;42.678;23.288;2024-01-11T03:48:46;-6.00;99.90
21092;DHT22;10704;42.678;23.288;2024-01-11T03:51:12;-6.00;99.90
21092;DHT22;10704;42.678;23.288;2024-01-11T03:53:38;-6.10;99.90
21092;DHT22;10704;42.678;23.288;2024-01-11T03:56:04;-6.10;99.90
21092;DHT22;10704;42.678;23.288;2024-01-11T03:58:30;-6.10;99.90
21092;DHT22;10704;42.678;23.288;2024-01-11T04:00:56;-6.00;99.90
21092;DHT22;10704;42.678;23.288;2024-01-11T04:03:22;-5.90;99.90
21092;DHT22;10704;42.678;23.288;2024-01-11T04:05:49;-5.90;99.90
21092;DHT22;10704;42.678;23.288;2024-01-11T04:08:15;-5.90;99.90
21092;DHT22;10704;42.678;23.288;2024-01-11T04:10:41;-5.90;99.90
21092;DHT22;10704;42.678;23.288;2024-01-11T04:13:07;-5.80;99.90
21092;DHT22;10704;42.678;23.288;2024-01-11T04:15:33;-5.80;99.90
21092;DHT22;10704;42.678;23.288;2024-01-11T04:17:59;-5.90;99.90
21092;DHT22;10704;42.678;23.288;2024-01-11T04:20:25;-5.80;99.90
21092;DHT22;10704;42.678;23.288;2024-01-11T04:22:51;-5.90;99.90
21092;DHT22;10704;42.678;23.288;2024-01-11T04:25:17;-5.90;99.90
21092;DHT22;10704;42.678;23.288;2024-01-11T04:27:43;-6.00;99.90
21092;DHT22;10704;42.678;23.288;2024-01-11T04:30:10;-6.00;99.90
21092;DHT22;10704;42.678;23.288;2024-01-11T04:32:36;-5.90;99.90
21092;DHT22;10704;42.678;23.288;2024-01-11T04:35:02;-5.80;99.90
21092;DHT22;10704;42.678;23.288;2024-01-11T04:37:28;-5.90;99.90
21092;DHT22;10704;42.678;23.288;2024-01-11T04:39:53;-6.10;99.90
21092;DHT22;10704;42.678;23.288;2024-01-11T04:42:19;-6.10;99.90
21092;DHT22;10704;42.678;23.288;2024-01-11T04:44:45;-6.00;99.90
21092;DHT22;10704;42.678;23.288;2024-01-11T04:47:11;-5.90;99.90
21092;DHT22;10704;42.678;23.288;2024-01-11T04:49:37;-5.90;99.90
21092;DHT22;10704;42.678;23.288;2024-01-11T04:52:03;-6.00;99.90
21092;DHT22;10704;42.678;23.288;2024-01-11T04:54:29;-6.00;99.90
21092;DHT22;10704;42.678;23.288;2024-01-11T04:56:55;-5.90;99.90
21092;DHT22;10704;42.678;23.288;2024-01-11T04:59:21;-5.80;99.90
21092;DHT22;10704;42.678;23.288;2024-01-11T05:01:47;-5.80;99.90
21092;DHT22;10704;42.678;23.288;2024-01-11T05:04:13;-5.80;99.90
21092;DHT22;10704;42.678;23.288;2024-01-11T05:06:39;-5.80;99.90
21092;DHT22;10704;42.678;23.288;2024-01-11T05:09:05;-5.40;99.90
21092;DHT22;10704;42.678;23.288;2024-01-11T05:11:31;-5.60;99.90
21092;DHT22;10704;42.678;23.288;2024-01-11T05:13:57;-5.60;99.90
21092;DHT22;10704;42.678;23.288;2024-01-11T05:16:27;-5.80;99.90
21092;DHT22;10704;42.678;23.288;2024-01-11T05:18:56;-6.00;99.90
21092;DHT22;10704;42.678;23.288;2024-01-11T05:21:22;-6.00;99.90
21092;DHT22;10704;42.678;23.288;2024-01-11T05:23:49;-6.00;99.90
21092;DHT22;10704;42.678;23.288;2024-01-11T05:26:15;-6.10;99.90
21092;DHT22;10704;42.678;23.288;2024-01-11T05:28:42;-6.20;99.90
21092;DHT22;10704;42.678;23.288;2024-01-11T05:31:10;-6.20;99.90
21092;DHT22;10704;42.678;23.288;2024-01-11T05:33:38;-6.30;99.90
21092;DHT22;10704;42.678;23.288;2024-01-11T05:36:04;-6.30;99.90
21092;DHT22;10704;42.678;23.288;2024-01-11T05:38:30;-6.20;99.90
21092;DHT22;10704;42.678;23.288;2024-01-11T05:40:56;-6.20;99.90
21092;DHT22;10704;42.678;23.288;2024-01-11T05:43:23;-6.10;99.90
21092;DHT22;10704;42.678;23.288;2024-01-11T05:45:50;-6.10;99.90
21092;DHT22;10704;42.678;23.288;2024-01-11T05:48:16;-6.10;99.90
21092;DHT22;10704;42.678;23.288;2024-01-11T05:50:46;-6.10;99.90
21092;DHT22;10704;42.678;23.288;2024-01-11T05:53:12;-6.10;99.90
21092;DHT22;10704;42.678;23.288;2024-01-11T05:55:41;-6.10;99.90
21092;DHT22;10704;42.678;23.288;2024-01-11T05:58:07;-6.20;99.90
21092;DHT22;10704;42.678;23.288;2024-01-11T06:00:33;-6.10;99.90
21092;DHT22;10704;42.678;23.288;2024-01-11T06:02:59;-6.10;99.90
21092;DHT22;10704;42.678;23.288;2024-01-11T06:05:26;-6.10;99.90
21092;DHT22;10704;42.678;23.288;2024-01-11T06:07:52;-6.10;99.90
21092;DHT22;10704;42.678;23.288;2024-01-11T06:10:18;-6.10;99.90
21092;DHT22;10704;42.678;23.288;2024-01-11T06:12:44;-6.20;99.90
21092;DHT22;10704;42.678;23.288;2024-01-11T06:15:10;-6.10;99.90
21092;DHT22;10704;42.678;23.288;2024-01-11T06:17:36;-6.10;99.90
21092;DHT22;10704;42.678;23.288;2024-01-11T06:20:02;-6.20;99.90
21092;DHT22;10704;42.678;23.288;2024-01-11T06:22:29;-6.20;99.90
21092;DHT22;10704;42.678;23.288;2024-01-11T06:24:55;-6.20;99.90
21092;DHT22;10704;42.678;23.288;2024-01-11T06:27:22;-6.20;99.90
21092;DHT22;10704;42.678;23.288;2024-01-11T06:29:48;-6.10;99.90
21092;DHT22;10704;42.678;23.288;2024-01-11T06:32:14;-6.10;99.90
21092;DHT22;10704;42.678;23.288;2024-01-11T06:34:40;-6.10;99.90
21092;DHT22;10704;42.678;23.288;2024-01-11T06:37:11;-6.10;99.90
21092;DHT22;10704;42.678;23.288;2024-01-11T06:39:37;-6.00;99.90
21092;DHT22;10704;42.678;23.288;2024-01-11T06:42:03;-6.00;99.90
21092;DHT22;10704;42.678;23.288;2024-01-11T06:44:29;-5.90;99.90
21092;DHT22;10704;42.678;23.288;2024-01-11T06:46:56;-5.80;99.90
21092;DHT22;10704;42.678;23.288;2024-01-11T06:49:22;-5.70;99.90
21092;DHT22;10704;42.678;23.288;2024-01-11T06:51:48;-5.70;99.90
21092;DHT22;10704;42.678;23.288;2024-01-11T06:54:15;-5.70;99.90
21092;DHT22;10704;42.678;23.288;2024-01-11T06:56:41;-5.70;99.90
21092;DHT22;10704;42.678;23.288;2024-01-11T06:59:07;-5.70;99.90
21092;DHT22;10704;42.678;23.288;2024-01-11T07:01:33;-5.60;99.90
21092;DHT22;10704;42.678;23.288;2024-01-11T07:03:59;-5.50;99.90
21092;DHT22;10704;42.678;23.288;2024-01-11T07:06:25;-5.30;99.90
21092;DHT22;10704;42.678;23.288;2024-01-11T07:08:51;-5.30;99.90
21092;DHT22;10704;42.678;23.288;2024-01-11T07:11:17;-5.30;99.90
21092;DHT22;10704;42.678;23.288;2024-01-11T07:13:43;-5.30;99.90
21092;DHT22;10704;42.678;23.288;2024-01-11T07:16:09;-5.20;99.90
21092;DHT22;10704;42.678;23.288;2024-01-11T07:18:35;-5.20;99.90
21092;DHT22;10704;42.678;23.288;2024-01-11T07:21:01;-5.20;99.90
21092;DHT22;10704;42.678;23.288;2024-01-11T07:23:27;-5.10;99.90
21092;DHT22;10704;42.678;23.288;2024-01-11T07:25:53;-5.20;99.90
21092;DHT22;10704;42.678;23.288;2024-01-11T07:28:19;-5.00;99.90
21092;DHT22;10704;42.678;23.288;2024-01-11T07:30:51;-4.90;99.90
21092;DHT22;10704;42.678;23.288;2024-01-11T07:33:18;-4.80;99.90
21092;DHT22;10704;42.678;23.288;2024-01-11T07:35:44;-4.60;99.90
21092;DHT22;10704;42.678;23.288;2024-01-11T07:38:11;-4.20;99.90
21092;DHT22;10704;42.678;23.288;2024-01-11T07:40:37;-3.80;99.90
21092;DHT22;10704;42.678;23.288;2024-01-11T07:43:03;-3.30;99.90
21092;DHT22;10704;42.678;23.288;2024-01-11T07:45:29;-3.00;99.90
21092;DHT22;10704;42.678;23.288;2024-01-11T07:47:55;-2.60;99.90
21092;DHT22;10704;42.678;23.288;2024-01-11T07:50:22;-2.50;99.90
21092;DHT22;10704;42.678;23.288;2024-01-11T07:52:48;-2.50;99.90
21092;DHT22;10704;42.678;23.288;2024-01-11T07:55:13;-2.70;99.90
21092;DHT22;10704;42.678;23.288;2024-01-11T07:57:40;-2.60;99.90
21092;DHT22;10704;42.678;23.288;2024-01-11T08:00:06;-2.70;99.90
21092;DHT22;10704;42.678;23.288;2024-01-11T08:02:39;-2.50;99.90
21092;DHT22;10704;42.678;23.288;2024-01-11T08:05:05;-2.30;99.90
21092;DHT22;10704;42.678;23.288;2024-01-11T08:07:31;-1.90;99.90
21092;DHT22;10704;42.678;23.288;2024-01-11T08:09:57;-1.40;99.90
21092;DHT22;10704;42.678;23.288;2024-01-11T08:12:23;-1.30;99.90
21092;DHT22;10704;42.678;23.288;2024-01-11T08:14:49;-0.80;99.90
21092;DHT22;10704;42.678;23.288;2024-01-11T08:17:15;-0.70;99.90
21092;DHT22;10704;42.678;23.288;2024-01-11T08:19:41;-0.60;99.90
21092;DHT22;10704;42.678;23.288;2024-01-11T08:22:10;-0.40;99.90
21092;DHT22;10704;42.678;23.288;2024-01-11T08:24:37;-0.20;99.90
21092;DHT22;10704;42.678;23.288;2024-01-11T08:27:04;0.00;99.90
21092;DHT22;10704;42.678;23.288;2024-01-11T08:29:31;0.20;99.90
21092;DHT22;10704;42.678;23.288;2024-01-11T08:31:57;0.50;99.90
21092;DHT22;10704;42.678;23.288;2024-01-11T08:34:23;0.60;99.90
21092;DHT22;10704;42.678;23.288;2024-01-11T08:36:52;0.70;99.90
21092;DHT22;10704;42.678;23.288;2024-01-11T08:39:17;0.50;99.90
21092;DHT22;10704;42.678;23.288;2024-01-11T08:41:43;0.80;99.90
21092;DHT22;10704;42.678;23.288;2024-01-11T08:44:09;1.00;99.90
21092;DHT22;10704;42.678;23.288;2024-01-11T08:46:35;1.30;99.90
21092;DHT22;10704;42.678;23.288;2024-01-11T08:49:02;1.70;99.90
21092;DHT22;10704;42.678;23.288;2024-01-11T08:51:31;2.20;99.90
21092;DHT22;10704;42.678;23.288;2024-01-11T08:54:00;2.50;99.90
21092;DHT22;10704;42.678;23.288;2024-01-11T08:56:26;2.90;99.90
21092;DHT22;10704;42.678;23.288;2024-01-11T08:58:52;3.00;99.90
21092;DHT22;10704;42.678;23.288;2024-01-11T09:01:18;3.00;99.90
21092;DHT22;10704;42.678;23.288;2024-01-11T09:03:44;3.30;99.90
21092;DHT22;10704;42.678;23.288;2024-01-11T09:06:10;3.50;98.10
21092;DHT22;10704;42.678;23.288;2024-01-11T09:08:39;3.60;98.10
21092;DHT22;10704;42.678;23.288;2024-01-11T09:11:07;3.60;96.90
21092;DHT22;10704;42.678;23.288;2024-01-11T09:13:33;3.60;97.10
21092;DHT22;10704;42.678;23.288;2024-01-11T09:15:59;4.00;96.30
21092;DHT22;10704;42.678;23.288;2024-01-11T09:18:25;3.90;95.50
21092;DHT22;10704;42.678;23.288;2024-01-11T09:20:51;4.10;96.20
21092;DHT22;10704;42.678;23.288;2024-01-11T09:23:17;4.60;94.70
21092;DHT22;10704;42.678;23.288;2024-01-11T09:25:44;4.80;93.30
21092;DHT22;10704;42.678;23.288;2024-01-11T09:28:10;4.70;92.20
21092;DHT22;10704;42.678;23.288;2024-01-11T09:30:36;4.90;92.90
21092;DHT22;10704;42.678;23.288;2024-01-11T09:33:02;5.20;92.30
21092;DHT22;10704;42.678;23.288;2024-01-11T09:35:28;5.40;91.10
21092;DHT22;10704;42.678;23.288;2024-01-11T09:37:54;5.30;90.60
21092;DHT22;10704;42.678;23.288;2024-01-11T09:40:23;5.10;90.10
21092;DHT22;10704;42.678;23.288;2024-01-11T09:42:49;5.60;91.40
21092;DHT22;10704;42.678;23.288;2024-01-11T09:45:16;6.40;90.00
21092;DHT22;10704;42.678;23.288;2024-01-11T09:47:44;7.10;87.10
21092;DHT22;10704;42.678;23.288;2024-01-11T09:50:15;7.20;84.40
21092;DHT22;10704;42.678;23.288;2024-01-11T09:52:47;7.00;84.10
21092;DHT22;10704;42.678;23.288;2024-01-11T09:55:17;6.70;84.40
21092;DHT22;10704;42.678;23.288;2024-01-11T09:57:52;6.90;84.90
21092;DHT22;10704;42.678;23.288;2024-01-11T10:00:22;6.60;81.50
21092;DHT22;10704;42.678;23.288;2024-01-11T10:02:50;6.30;83.30
21092;DHT22;10704;42.678;23.288;2024-01-11T10:05:17;6.20;84.10
21092;DHT22;10704;42.678;23.288;2024-01-11T10:07:43;5.90;84.30
21092;DHT22;10704;42.678;23.288;2024-01-11T10:10:09;6.30;84.40
21092;DHT22;10704;42.678;23.288;2024-01-11T10:12:36;6.70;84.60
21092;DHT22;10704;42.678;23.288;2024-01-11T10:15:09;7.00;84.20
21092;DHT22;10704;42.678;23.288;2024-01-11T10:17:44;6.90;82.90
21092;DHT22;10704;42.678;23.288;2024-01-11T10:20:14;7.20;82.10
21092;DHT22;10704;42.678;23.288;2024-01-11T10:22:43;7.80;81.60
21092;DHT22;10704;42.678;23.288;2024-01-11T10:25:13;8.20;80.50
21092;DHT22;10704;42.678;23.288;2024-01-11T10:27:42;8.30;78.80
21092;DHT22;10704;42.678;23.288;2024-01-11T10:30:12;8.80;78.50
21092;DHT22;10704;42.678;23.288;2024-01-11T10:32:39;8.90;77.90
21092;DHT22;10704;42.678;23.288;2024-01-11T10:35:05;8.80;76.60
21092;DHT22;10704;42.678;23.288;2024-01-11T10:37:32;8.90;77.20
21092;DHT22;10704;42.678;23.288;2024-01-11T10:40:05;8.80;77.00
21092;DHT22;10704;42.678;23.288;2024-01-11T10:42:36;8.70;77.40
21092;DHT22;10704;42.678;23.288;2024-01-11T10:45:09;8.70;75.50
21092;DHT22;10704;42.678;23.288;2024-01-11T10:47:37;8.70;76.80
21092;DHT22;10704;42.678;23.288;2024-01-11T10:50:06;9.30;75.50
21092;DHT22;10704;42.678;23.288;2024-01-11T10:52:38;9.20;75.20
21092;DHT22;10704;42.678;23.288;2024-01-11T10:55:08;10.40;74.40
21092;DHT22;10704;42.678;23.288;2024-01-11T10:57:34;10.50;71.80
21092;DHT22;10704;42.678;23.288;2024-01-11T11:00:01;11.10;70.50
21092;DHT22;10704;42.678;23.288;2024-01-11T11:02:29;11.50;69.10
21092;DHT22;10704;42.678;23.288;2024-01-11T11:04:59;11.70;68.80
21092;DHT22;10704;42.678;23.288;2024-01-11T11:07:25;11.70;66.30
21092;DHT22;10704;42.678;23.288;2024-01-11T11:09:53;12.00;67.20
21092;DHT22;10704;42.678;23.288;2024-01-11T11:12:21;11.50;67.70
21092;DHT22;10704;42.678;23.288;2024-01-11T11:14:47;11.60;67.80
21092;DHT22;10704;42.678;23.288;2024-01-11T11:17:15;11.60;68.80
21092;DHT22;10704;42.678;23.288;2024-01-11T11:19:42;11.10;67.00
21092;DHT22;10704;42.678;23.288;2024-01-11T11:22:08;11.10;66.40
21092;DHT22;10704;42.678;23.288;2024-01-11T11:24:34;11.50;66.70
21092;DHT22;10704;42.678;23.288;2024-01-11T11:27:01;12.00;65.50
21092;DHT22;10704;42.678;23.288;2024-01-11T11:29:27;12.00;64.80
21092;DHT22;10704;42.678;23.288;2024-01-11T11:31:53;11.70;64.80
21092;DHT22;10704;42.678;23.288;2024-01-11T11:37:11;11.20;66.20
21092;DHT22;10704;42.678;23.288;2024-01-11T11:39:37;11.50;65.10
21092;DHT22;10704;42.678;23.288;2024-01-11T11:42:04;10.80;65.00
21092;DHT22;10704;42.678;23.288;2024-01-11T11:44:30;10.90;66.00
21092;DHT22;10704;42.678;23.288;2024-01-11T11:47:20;10.80;67.00
21092;DHT22;10704;42.678;23.288;2024-01-11T11:50:03;11.00;66.60
21092;DHT22;10704;42.678;23.288;2024-01-11T11:52:34;10.90;69.20
21092;DHT22;10704;42.678;23.288;2024-01-11T11:55:02;10.60;68.70
21092;DHT22;10704;42.678;23.288;2024-01-11T11:57:29;10.60;69.50
21092;DHT22;10704;42.678;23.288;2024-01-11T11:59:58;10.60;70.10
21092;DHT22;10704;42.678;23.288;2024-01-11T12:02:27;10.40;70.20
21092;DHT22;10704;42.678;23.288;2024-01-11T12:04:53;10.20;71.60
21092;DHT22;10704;42.678;23.288;2024-01-11T12:07:20;10.40;71.40
21092;DHT22;10704;42.678;23.288;2024-01-11T12:09:48;10.60;70.10
21092;DHT22;10704;42.678;23.288;2024-01-11T12:12:15;9.50;72.50
21092;DHT22;10704;42.678;23.288;2024-01-11T12:14:43;9.90;72.90
21092;DHT22;10704;42.678;23.288;2024-01-11T12:17:09;10.00;71.40
21092;DHT22;10704;42.678;23.288;2024-01-11T12:19:35;9.90;73.00
21092;DHT22;10704;42.678;23.288;2024-01-11T12:22:01;10.20;73.30
21092;DHT22;10704;42.678;23.288;2024-01-11T12:24:27;10.10;73.80
21092;DHT22;10704;42.678;23.288;2024-01-11T12:26:56;10.30;72.10
21092;DHT22;10704;42.678;23.288;2024-01-11T12:29:23;9.70;74.50
21092;DHT22;10704;42.678;23.288;2024-01-11T12:31:52;10.00;75.30
21092;DHT22;10704;42.678;23.288;2024-01-11T12:34:18;10.00;73.70
21092;DHT22;10704;42.678;23.288;2024-01-11T12:36:44;9.90;74.90
21092;DHT22;10704;42.678;23.288;2024-01-11T12:39:11;10.00;75.40
21092;DHT22;10704;42.678;23.288;2024-01-11T12:41:39;10.40;75.10
21092;DHT22;10704;42.678;23.288;2024-01-11T12:44:05;10.10;74.00
21092;DHT22;10704;42.678;23.288;2024-01-11T12:46:31;10.10;75.40
21092;DHT22;10704;42.678;23.288;2024-01-11T12:48:58;9.70;76.10
21092;DHT22;10704;42.678;23.288;2024-01-11T12:51:25;9.70;76.00
21092;DHT22;10704;42.678;23.288;2024-01-11T12:53:52;9.40;76.20
21092;DHT22;10704;42.678;23.288;2024-01-11T12:56:19;9.00;77.00
21092;DHT22;10704;42.678;23.288;2024-01-11T12:58:47;9.20;77.30
21092;DHT22;10704;42.678;23.288;2024-01-11T13:01:13;9.10;76.90
21092;DHT22;10704;42.678;23.288;2024-01-11T13:03:44;9.30;76.60
21092;DHT22;10704;42.678;23.288;2024-01-11T13:06:15;9.20;78.50
21092;DHT22;10704;42.678;23.288;2024-01-11T13:08:41;9.50;77.70
21092;DHT22;10704;42.678;23.288;2024-01-11T13:11:08;9.60;77.30
21092;DHT22;10704;42.678;23.288;2024-01-11T13:13:35;9.40;76.10
21092;DHT22;10704;42.678;23.288;2024-01-11T13:16:03;8.90;76.90
21092;DHT22;10704;42.678;23.288;2024-01-11T13:18:34;8.80;78.30
21092;DHT22;10704;42.678;23.288;2024-01-11T13:21:00;8.90;78.60
21092;DHT22;10704;42.678;23.288;2024-01-11T13:23:26;8.60;78.10
21092;DHT22;10704;42.678;23.288;2024-01-11T13:25:54;8.40;79.30
21092;DHT22;10704;42.678;23.288;2024-01-11T13:28:20;8.20;80.80
21092;DHT22;10704;42.678;23.288;2024-01-11T13:30:46;8.30;79.80
21092;DHT22;10704;42.678;23.288;2024-01-11T13:33:14;7.70;80.50
21092;DHT22;10704;42.678;23.288;2024-01-11T13:35:43;7.60;81.30
21092;DHT22;10704;42.678;23.288;2024-01-11T13:38:09;7.90;82.10
21092;DHT22;10704;42.678;23.288;2024-01-11T13:40:35;8.30;81.30
21092;DHT22;10704;42.678;23.288;2024-01-11T13:43:01;8.30;80.30
21092;DHT22;10704;42.678;23.288;2024-01-11T13:45:29;8.50;79.70
21092;DHT22;10704;42.678;23.288;2024-01-11T13:47:58;8.20;81.10
21092;DHT22;10704;42.678;23.288;2024-01-11T13:50:24;8.00;81.50
21092;DHT22;10704;42.678;23.288;2024-01-11T13:52:51;7.60;81.40
21092;DHT22;10704;42.678;23.288;2024-01-11T13:55:17;7.90;82.40
21092;DHT22;10704;42.678;23.288;2024-01-11T13:57:43;8.10;82.40
21092;DHT22;10704;42.678;23.288;2024-01-11T14:00:10;7.90;81.90
21092;DHT22;10704;42.678;23.288;2024-01-11T14:02:37;7.90;82.20
21092;DHT22;10704;42.678;23.288;2024-01-11T14:05:06;8.20;82.10
21092;DHT22;10704;42.678;23.288;2024-01-11T14:07:35;8.30;81.30
21092;DHT22;10704;42.678;23.288;2024-01-11T14:10:01;8.30;80.80
21092;DHT22;10704;42.678;23.288;2024-01-11T14:12:27;8.60;80.10
21092;DHT22;10704;42.678;23.288;2024-01-11T14:14:53;8.10;81.00
21092;DHT22;10704;42.678;23.288;2024-01-11T14:17:19;7.10;83.20
21092;DHT22;10704;42.678;23.288;2024-01-11T14:19:45;5.70;86.60
21092;DHT22;10704;42.678;23.288;2024-01-11T14:22:10;4.60;90.50
21092;DHT22;10704;42.678;23.288;2024-01-11T14:24:38;4.00;92.40
21092;DHT22;10704;42.678;23.288;2024-01-11T14:27:04;3.70;94.40
21092;DHT22;10704;42.678;23.288;2024-01-11T14:29:30;3.40;95.60
21092;DHT22;10704;42.678;23.288;2024-01-11T14:31:56;3.10;97.00
21092;DHT22;10704;42.678;23.288;2024-01-11T14:34:25;3.00;99.00
21092;DHT22;10704;42.678;23.288;2024-01-11T14:36:51;2.70;99.90
21092;DHT22;10704;42.678;23.288;2024-01-11T14:39:17;2.60;99.90
21092;DHT22;10704;42.678;23.288;2024-01-11T14:41:44;2.50;99.90
21092;DHT22;10704;42.678;23.288;2024-01-11T14:44:11;2.50;99.90
21092;DHT22;10704;42.678;23.288;2024-01-11T14:46:37;2.30;99.90
21092;DHT22;10704;42.678;23.288;2024-01-11T14:49:03;2.30;99.90
21092;DHT22;10704;42.678;23.288;2024-01-11T14:51:30;2.10;99.90
21092;DHT22;10704;42.678;23.288;2024-01-11T14:54:00;2.00;99.90
21092;DHT22;10704;42.678;23.288;2024-01-11T14:56:26;1.90;99.90
21092;DHT22;10704;42.678;23.288;2024-01-11T14:58:52;1.80;99.90
21092;DHT22;10704;42.678;23.288;2024-01-11T15:01:18;1.60;99.90
21092;DHT22;10704;42.678;23.288;2024-01-11T15:03:43;1.60;99.90
21092;DHT22;10704;42.678;23.288;2024-01-11T15:06:09;1.50;99.90
21092;DHT22;10704;42.678;23.288;2024-01-11T15:08:35;1.40;99.90
21092;DHT22;10704;42.678;23.288;2024-01-11T15:11:01;1.40;99.90
21092;DHT22;10704;42.678;23.288;2024-01-11T15:13:29;1.30;99.90
21092;DHT22;10704;42.678;23.288;2024-01-11T15:15:56;1.30;99.90
21092;DHT22;10704;42.678;23.288;2024-01-11T15:18:22;1.20;99.90
21092;DHT22;10704;42.678;23.288;2024-01-11T15:20:48;1.10;99.90